Terminal Aerodrome Forecast
Issued by NWS Cleveland, OH

Home | Current Version | Previous Version | Text Only | Print | Product List | Glossary On
Versions: 1 2 3 4 5 6 7 8 9 10 11 12 13 14 15 16 17
000
FTUS41 KCLE 050500 RRA
TAFCAK
TAF
KCAK 050543Z 0506/0606 18003KT 4SM BR SCT120 BKN200
     FM050800 VRB03KT 2SM BR BKN120 OVC250
      TEMPO 0508/0512 3/4SM BR
     FM051200 15005KT 5SM BR VCSH BKN040 OVC100
     FM051500 20006KT P6SM SCT035 OVC100
     FM052300 VRB04KT P6SM VCSH BKN035 OVC100=

USA.gov is the U.S. government's official web portal to all federal, state and local government web resources and services.